If you wish to contribute or participate in the discussions about articles you are invited to join SKYbrary as a registered user

 Actions

Hooper Bay Airport

From SKYbrary Wiki

PAHP
Airport
ICAO: PAHP – IATA: HPB
Summary
Name Hooper Bay Airport
Region North America
Territory Alaska US.gif
Location , Alaska
Serving Hooper Bay
Elevation 3.962 m
13 ft
13 ft3.962 m
Type medium airport
Coordinates 61° 31' 26.04" N, 166° 8' 49.20" W
Runways
Designator Length Width Surface ROPS
13/31 1006 m3,300.525 ft
23 m75.459 ft
ASP /


METAR
Observation PAHP 211856Z AUTO 13018G24KT 10SM -RA SCT008 BKN021 07/06 A2939 RMK AO2 PK WND 13031/1805 SLP989 T00670056 PNO $
Station Hooper Bay, Hooper Bay Airport
Date/Time 21 September 2019 18:56:00
Wind direction 130°
Wind speed 18 kts
Lowest cloud amount scattered clouds
Temperature 6.7°C
Dew point 5.6°C
Humidity 92%
QNH hPa
Weather condition light rain